createdAt,value
2023-02-27T00:00:16.332Z,14.67
2023-02-27T00:04:16.332Z,14.69
2023-02-27T00:08:16.319Z,14.73
2023-02-27T00:12:16.337Z,14.70
2023-02-27T00:16:16.376Z,14.67
2023-02-27T00:20:16.300Z,14.66
2023-02-27T00:24:16.305Z,14.65
2023-02-27T00:28:16.284Z,14.67
2023-02-27T00:32:16.334Z,14.66
2023-02-27T00:36:16.343Z,14.62
2023-02-27T00:40:16.347Z,14.65
2023-02-27T00:44:16.352Z,14.66
2023-02-27T00:48:16.347Z,14.67
2023-02-27T00:52:16.368Z,14.69
2023-02-27T00:56:16.381Z,14.67
2023-02-27T01:00:16.355Z,14.65
2023-02-27T01:04:16.393Z,14.67
2023-02-27T01:08:16.445Z,14.63
2023-02-27T01:12:16.449Z,14.56
2023-02-27T01:16:16.541Z,14.56
2023-02-27T01:20:16.513Z,14.56
2023-02-27T01:24:16.575Z,14.52
2023-02-27T01:28:16.589Z,14.49
2023-02-27T01:32:16.826Z,14.49
2023-02-27T01:36:16.729Z,14.50
2023-02-27T01:40:16.896Z,14.50
2023-02-27T01:44:16.840Z,14.49
2023-02-27T01:48:16.967Z,14.53
2023-02-27T01:52:16.959Z,14.53
2023-02-27T01:56:17.012Z,14.56
2023-02-27T02:00:17.071Z,14.58
2023-02-27T02:04:17.138Z,14.58
2023-02-27T02:08:17.200Z,14.58
2023-02-27T02:12:17.231Z,14.60
2023-02-27T02:16:17.427Z,14.52
2023-02-27T02:20:17.368Z,14.53
2023-02-27T02:24:17.467Z,14.48
2023-02-27T02:28:17.566Z,14.45
2023-02-27T02:32:17.742Z,14.42
2023-02-27T02:36:17.749Z,14.45
2023-02-27T02:40:17.885Z,14.42
2023-02-27T02:44:18.001Z,14.43
2023-02-27T02:48:18.138Z,14.46
2023-02-27T02:52:18.187Z,14.48
2023-02-27T02:56:18.310Z,14.46
2023-02-27T03:00:18.420Z,14.43
2023-02-27T03:04:18.615Z,14.33
2023-02-27T03:08:18.641Z,14.28
2023-02-27T03:12:18.767Z,14.27
2023-02-27T03:16:18.862Z,14.28
2023-02-27T03:20:18.974Z,14.24
2023-02-27T03:24:19.110Z,14.28
2023-02-27T03:28:19.224Z,14.22
2023-02-27T03:32:19.376Z,14.20
2023-02-27T03:36:19.413Z,14.17
2023-02-27T03:40:19.542Z,14.08
2023-02-27T03:44:19.666Z,14.12
2023-02-27T03:48:19.774Z,14.15
2023-02-27T03:52:19.879Z,14.10
2023-02-27T03:56:19.976Z,14.10
2023-02-27T04:00:20.070Z,14.11
2023-02-27T04:04:20.158Z,14.08
2023-02-27T04:08:21.097Z,14.08
2023-02-27T04:12:20.416Z,14.11
2023-02-27T04:16:20.505Z,14.08
2023-02-27T04:20:20.611Z,14.10
2023-02-27T04:24:20.704Z,14.15
2023-02-27T04:28:20.822Z,14.17
2023-02-27T04:32:20.958Z,14.21
2023-02-27T04:36:21.032Z,14.15
2023-02-27T04:40:21.147Z,14.15
2023-02-27T04:44:21.270Z,14.08
2023-02-27T04:48:21.419Z,14.12
2023-02-27T04:52:21.606Z,14.12
2023-02-27T04:56:21.672Z,14.08
2023-02-27T05:00:21.782Z,14.12
2023-02-27T05:04:21.897Z,14.17
2023-02-27T05:08:22.022Z,14.18
2023-02-27T05:12:22.137Z,14.18
2023-02-27T05:16:22.325Z,14.25
2023-02-27T05:20:22.392Z,14.28
2023-02-27T05:24:22.490Z,14.27
2023-02-27T05:28:23.117Z,14.32
2023-02-27T05:32:22.715Z,14.27
2023-02-27T05:36:22.842Z,14.24
2023-02-27T05:40:22.937Z,14.24
2023-02-27T05:44:23.100Z,14.25
2023-02-27T05:48:23.209Z,14.29
2023-02-27T05:52:23.358Z,14.32
2023-02-27T05:56:23.463Z,14.43
2023-02-27T06:00:23.594Z,14.50
2023-02-27T06:04:23.714Z,14.60
2023-02-27T06:08:23.860Z,14.55
2023-02-27T06:12:23.972Z,14.60
2023-02-27T06:16:24.142Z,14.62
2023-02-27T06:20:24.220Z,14.63
2023-02-27T06:24:24.357Z,14.67
2023-02-27T06:28:24.430Z,14.79
2023-02-27T06:32:24.450Z,14.86
2023-02-27T06:36:24.540Z,14.94
2023-02-27T06:40:24.670Z,15.20
2023-02-27T06:44:24.664Z,15.49
2023-02-27T06:48:24.885Z,15.92
2023-02-27T06:52:25.149Z,16.27
2023-02-27T06:56:25.325Z,16.52
2023-02-27T07:00:25.667Z,16.69
2023-02-27T07:04:25.672Z,16.94
2023-02-27T07:08:25.418Z,17.34
2023-02-27T07:12:25.550Z,17.86
2023-02-27T07:16:25.891Z,17.86
2023-02-27T07:20:26.189Z,17.83
2023-02-27T07:24:25.700Z,17.82
2023-02-27T07:28:25.736Z,17.83
2023-02-27T07:32:26.274Z,17.97
2023-02-27T07:36:26.070Z,18.08
2023-02-27T07:40:25.800Z,18.17
2023-02-27T07:44:25.782Z,18.37
2023-02-27T07:48:26.155Z,19.59
2023-02-27T07:52:26.192Z,20.23
2023-02-27T07:56:25.839Z,20.79
2023-02-27T08:00:25.599Z,21.06
2023-02-27T08:04:25.631Z,21.15
2023-02-27T08:08:25.686Z,20.55
2023-02-27T08:12:25.514Z,19.97
2023-02-27T08:16:26.139Z,20.08
2023-02-27T08:20:25.471Z,20.48
2023-02-27T08:24:25.438Z,20.32
2023-02-27T08:28:25.372Z,20.16
2023-02-27T08:32:25.365Z,19.96
2023-02-27T08:36:25.729Z,19.79
2023-02-27T08:40:25.682Z,19.70
2023-02-27T08:44:25.707Z,19.53
2023-02-27T08:48:25.711Z,19.38
2023-02-27T08:52:25.225Z,19.22
2023-02-27T08:56:25.447Z,19.18
2023-02-27T09:00:25.362Z,19.10
2023-02-27T09:04:25.080Z,19.08
2023-02-27T09:08:25.128Z,19.00
2023-02-27T09:12:25.012Z,18.94
2023-02-27T09:16:25.119Z,18.89
2023-02-27T09:20:24.956Z,18.90
2023-02-27T09:24:24.936Z,18.82
2023-02-27T09:28:24.869Z,18.82
2023-02-27T09:32:24.906Z,18.83
2023-02-27T09:36:25.748Z,18.87
2023-02-27T09:40:25.199Z,18.83
2023-02-27T09:44:36.371Z,18.91
2023-02-27T09:48:25.809Z,19.03
2023-02-27T09:52:25.214Z,19.10
2023-02-27T09:56:25.449Z,19.19
2023-02-27T10:00:25.194Z,19.24
2023-02-27T10:04:25.696Z,19.25
2023-02-27T10:08:25.171Z,19.35
2023-02-27T10:12:25.322Z,19.46
2023-02-27T10:16:26.133Z,19.49
2023-02-27T10:20:25.516Z,19.51
2023-02-27T10:24:25.481Z,19.55
2023-02-27T10:28:25.422Z,19.65
2023-02-27T10:32:25.385Z,19.63
2023-02-27T10:36:33.584Z,19.69
2023-02-27T10:40:26.766Z,19.74
2023-02-27T10:44:25.730Z,19.76
2023-02-27T10:48:25.735Z,19.66
2023-02-27T10:52:25.197Z,19.69
2023-02-27T10:56:25.599Z,19.76
2023-02-27T11:00:25.708Z,19.82
2023-02-27T11:04:25.443Z,19.87
2023-02-27T11:08:25.411Z,20.07
2023-02-27T11:12:25.703Z,20.06
2023-02-27T11:16:25.420Z,20.13
2023-02-27T11:20:25.408Z,20.06
2023-02-27T11:24:25.380Z,20.07
2023-02-27T11:28:25.398Z,20.04
2023-02-27T11:32:25.437Z,20.04
2023-02-27T11:36:25.750Z,20.03
2023-02-27T11:40:25.774Z,20.10
2023-02-27T11:44:32.771Z,20.08
2023-02-27T11:48:26.385Z,20.16
2023-02-27T11:52:25.360Z,20.23
2023-02-27T11:56:25.730Z,20.24
2023-02-27T12:00:25.288Z,20.24
2023-02-27T12:04:25.785Z,20.25
2023-02-27T12:08:25.519Z,20.23
2023-02-27T12:12:25.747Z,20.32
2023-02-27T12:16:25.678Z,20.42
2023-02-27T12:20:25.432Z,20.49
2023-02-27T12:24:25.372Z,20.52
2023-02-27T12:28:25.758Z,20.52
2023-02-27T12:32:25.824Z,20.53
2023-02-27T12:36:25.257Z,20.39
2023-02-27T12:40:25.241Z,20.17
2023-02-27T12:44:25.197Z,20.07
2023-02-27T12:48:25.149Z,19.99
2023-02-27T12:52:25.113Z,19.97
2023-02-27T12:56:25.060Z,19.97
2023-02-27T13:00:25.250Z,19.99
2023-02-27T13:04:25.018Z,20.04
2023-02-27T13:08:24.966Z,20.08
2023-02-27T13:12:24.918Z,20.14
2023-02-27T13:16:25.279Z,20.10
2023-02-27T13:20:24.858Z,20.10
2023-02-27T13:24:25.296Z,20.10
2023-02-27T13:28:25.269Z,20.03
2023-02-27T13:32:30.009Z,19.93
2023-02-27T13:36:25.790Z,19.90
2023-02-27T13:40:24.763Z,19.93
2023-02-27T13:44:24.743Z,19.90
2023-02-27T13:48:24.688Z,19.91
2023-02-27T13:52:24.670Z,19.90
2023-02-27T13:56:24.641Z,19.90
2023-02-27T14:00:24.723Z,19.89
2023-02-27T14:04:24.877Z,19.91
2023-02-27T14:08:24.979Z,19.93
2023-02-27T14:12:27.092Z,19.94
2023-02-27T14:16:25.131Z,19.96
2023-02-27T14:20:24.991Z,19.93
2023-02-27T14:24:24.981Z,19.94
2023-02-27T14:28:24.940Z,19.99
2023-02-27T14:32:24.939Z,19.97
2023-02-27T14:36:24.920Z,19.97
2023-02-27T14:40:30.123Z,20.01
2023-02-27T14:44:25.798Z,20.01
2023-02-27T14:48:24.712Z,20.04
2023-02-27T14:52:24.713Z,20.08
2023-02-27T14:56:24.733Z,20.06
2023-02-27T15:00:24.908Z,20.04
2023-02-27T15:04:25.209Z,20.04
2023-02-27T15:08:25.657Z,20.06
2023-02-27T15:12:25.396Z,20.03
2023-02-27T15:16:25.932Z,20.03
2023-02-27T15:20:25.798Z,20.23
2023-02-27T15:24:25.776Z,20.25
2023-02-27T15:28:25.917Z,20.10
2023-02-27T15:32:26.097Z,20.11
2023-02-27T15:36:26.237Z,20.04
2023-02-27T15:40:26.406Z,20.01
2023-02-27T15:44:26.566Z,20.06
2023-02-27T15:48:26.723Z,19.91
2023-02-27T15:52:26.840Z,19.87
2023-02-27T15:56:26.984Z,19.87
2023-02-27T16:00:27.116Z,19.87
2023-02-27T16:04:27.265Z,19.91
2023-02-27T16:08:27.833Z,19.86
2023-02-27T16:12:27.534Z,19.79
2023-02-27T16:16:28.069Z,19.74
2023-02-27T16:20:27.785Z,19.79
2023-02-27T16:24:27.938Z,19.80
2023-02-27T16:28:28.053Z,19.86
2023-02-27T16:32:28.245Z,19.89
2023-02-27T16:36:28.677Z,19.94
2023-02-27T16:40:28.555Z,19.99
2023-02-27T16:44:28.642Z,20.00
2023-02-27T16:48:28.754Z,19.97
2023-02-27T16:52:28.958Z,19.97
2023-02-27T16:56:37.689Z,20.01
2023-02-27T17:00:30.086Z,20.01
2023-02-27T17:04:29.070Z,19.99
2023-02-27T17:08:28.988Z,20.06
2023-02-27T17:12:29.099Z,20.11
2023-02-27T17:16:29.667Z,20.11
2023-02-27T17:20:29.410Z,20.11
2023-02-27T17:24:29.611Z,20.13
2023-02-27T17:28:29.811Z,20.10
2023-02-27T17:32:30.038Z,20.11
2023-02-27T17:36:30.416Z,20.13
2023-02-27T17:40:29.997Z,20.17
2023-02-27T17:44:29.913Z,20.14
2023-02-27T17:48:29.885Z,20.13
2023-02-27T17:52:29.832Z,20.14
2023-02-27T17:56:30.186Z,20.13
2023-02-27T18:00:29.841Z,20.17
2023-02-27T18:04:29.821Z,20.11
2023-02-27T18:08:29.778Z,20.13
2023-02-27T18:12:29.771Z,20.07
2023-02-27T18:16:30.151Z,20.08
2023-02-27T18:20:29.638Z,20.06
2023-02-27T18:24:29.645Z,20.10
2023-02-27T18:28:29.577Z,20.14
2023-02-27T18:32:29.530Z,20.14
2023-02-27T18:36:30.015Z,20.16
2023-02-27T18:40:29.482Z,20.16
2023-02-27T18:44:29.441Z,20.16
2023-02-27T18:48:29.471Z,20.16
2023-02-27T18:52:29.389Z,20.16
2023-02-27T18:56:29.700Z,20.14
2023-02-27T19:00:29.290Z,20.13
2023-02-27T19:04:29.251Z,20.14
2023-02-27T19:08:29.238Z,20.16
2023-02-27T19:12:29.166Z,20.16
2023-02-27T19:16:29.469Z,20.21
2023-02-27T19:20:29.135Z,20.21
2023-02-27T19:24:29.062Z,20.24
2023-02-27T19:28:30.004Z,20.23
2023-02-27T19:32:28.993Z,20.25
2023-02-27T19:36:29.336Z,20.24
2023-02-27T19:40:28.951Z,20.23
2023-02-27T19:44:28.960Z,20.23
2023-02-27T19:48:28.885Z,20.23
2023-02-27T19:52:28.897Z,20.23
2023-02-27T19:56:29.377Z,20.24
2023-02-27T20:00:28.958Z,20.23
2023-02-27T20:04:28.982Z,20.23
2023-02-27T20:08:29.020Z,20.17
2023-02-27T20:12:29.043Z,20.18
2023-02-27T20:16:29.405Z,20.18
2023-02-27T20:20:31.721Z,20.18
2023-02-27T20:24:29.074Z,20.21
2023-02-27T20:28:29.022Z,20.18
2023-02-27T20:32:29.114Z,20.20
2023-02-27T20:36:28.958Z,20.21
2023-02-27T20:40:28.905Z,20.20
2023-02-27T20:44:28.892Z,20.20
2023-02-27T20:48:28.821Z,20.20
2023-02-27T20:52:28.799Z,20.20
2023-02-27T20:56:28.782Z,20.18
2023-02-27T21:00:28.701Z,20.21
2023-02-27T21:04:28.734Z,20.21
2023-02-27T21:08:28.637Z,20.18
2023-02-27T21:12:28.594Z,20.18
2023-02-27T21:16:28.567Z,20.20
2023-02-27T21:20:28.539Z,20.21
2023-02-27T21:24:28.510Z,20.21
2023-02-27T21:28:28.459Z,20.20
2023-02-27T21:32:28.408Z,20.18
2023-02-27T21:36:28.407Z,20.21
2023-02-27T21:40:28.376Z,20.23
2023-02-27T21:44:28.290Z,20.21
2023-02-27T21:48:28.245Z,20.18
2023-02-27T21:52:28.231Z,20.20
2023-02-27T21:56:28.522Z,20.21
2023-02-27T22:00:28.132Z,20.21
2023-02-27T22:04:28.102Z,20.20
2023-02-27T22:08:28.063Z,20.20
2023-02-27T22:12:28.038Z,20.20
2023-02-27T22:16:27.997Z,20.23
2023-02-27T22:20:28.046Z,20.23
2023-02-27T22:24:28.148Z,20.21
2023-02-27T22:28:28.204Z,20.20
2023-02-27T22:32:28.223Z,20.20
2023-02-27T22:36:28.245Z,20.20
2023-02-27T22:40:28.324Z,20.18
2023-02-27T22:44:28.337Z,20.20
2023-02-27T22:48:28.369Z,20.21
2023-02-27T22:52:28.467Z,20.20
2023-02-27T22:56:28.493Z,20.20
2023-02-27T23:00:28.506Z,20.20
2023-02-27T23:04:28.582Z,20.21
2023-02-27T23:08:28.621Z,20.17
2023-02-27T23:12:28.683Z,20.20
2023-02-27T23:16:28.839Z,20.17
2023-02-27T23:20:28.755Z,20.20
2023-02-27T23:24:28.784Z,20.16
2023-02-27T23:28:28.879Z,20.17
2023-02-27T23:32:28.945Z,20.18
2023-02-27T23:36:28.961Z,20.17
2023-02-27T23:40:28.980Z,20.16
2023-02-27T23:44:29.028Z,20.17
2023-02-27T23:48:29.088Z,20.16
2023-02-27T23:52:29.122Z,20.16
2023-02-27T23:56:29.156Z,20.16
